Time;durP1;ratioP1;P1;durP2;ratioP2;P2;SDS_P1;SDS_P2;PMS_P1;PMS_P2;Temp;Humidity;BMP_temperature;BMP_pressure;BME280_temperature;BME280_humidity;BME280_pressure;Samples;Min_cycle;Max_cycle;Signal;HPM_P1;HPM_P2
2021/07/07 00:01:14;;;;;;;13.45;6.28;;;;;;;17.30;59.52;99594.50;5116189;27;20530;-69
2021/07/07 00:03:40;;;;;;;14.20;7.35;;;;;;;17.25;59.61;99600.69;5134584;27;20039;-69
2021/07/07 00:06:06;;;;;;;15.07;7.35;;;;;;;17.20;60.14;99600.69;5134926;27;20465;-69
2021/07/07 00:08:32;;;;;;;14.18;6.72;;;;;;;17.15;60.08;99604.22;5134235;27;20035;-69
2021/07/07 00:10:59;;;;;;;14.20;7.38;;;;;;;17.08;60.74;99597.56;5134851;27;20606;-69
2021/07/07 00:13:25;;;;;;;14.95;6.80;;;;;;;17.07;60.85;99602.13;5099345;27;20043;-69
2021/07/07 00:15:50;;;;;;;19.67;7.25;;;;;;;17.07;60.45;99607.47;5116036;27;20504;-69
2021/07/07 00:18:16;;;;;;;12.85;6.97;;;;;;;17.06;60.19;99602.38;5134392;27;20039;-70
2021/07/07 00:20:46;;;;;;;10.95;6.88;;;;;;;17.06;60.01;99610.41;5115955;27;20122;-69
2021/07/07 00:23:12;;;;;;;15.77;7.68;;;;;;;17.05;60.26;99603.47;5116167;27;20130;-69
2021/07/07 00:25:39;;;;;;;14.27;7.20;;;;;;;17.03;60.22;99609.91;5134531;27;20050;-69
2021/07/07 00:28:05;;;;;;;13.75;7.30;;;;;;;17.01;59.89;99612.03;5134225;27;20264;-69
2021/07/07 00:30:31;;;;;;;12.23;6.60;;;;;;;17.02;59.72;99612.84;5115795;27;20041;-69
2021/07/07 00:32:57;;;;;;;12.00;6.78;;;;;;;17.01;60.15;99614.72;5134293;27;20047;-69
2021/07/07 00:35:23;;;;;;;12.80;6.90;;;;;;;16.97;60.12;99612.84;5134149;27;20511;-69
2021/07/07 00:37:49;;;;;;;10.88;7.30;;;;;;;16.97;61.70;99629.75;5115684;27;20128;-69
2021/07/07 00:40:15;;;;;;;16.65;7.28;;;;;;;16.92;63.53;99619.03;5134104;27;20043;-68
2021/07/07 00:42:41;;;;;;;16.05;7.82;;;;;;;16.86;64.41;99627.38;5114426;27;20047;-69
2021/07/07 00:45:08;;;;;;;16.63;8.23;;;;;;;16.82;65.37;99628.97;5111760;28;20048;-70
2021/07/07 00:47:34;;;;;;;16.63;8.18;;;;;;;16.76;65.94;99636.22;5113462;28;20075;-70
2021/07/07 00:50:00;;;;;;;13.38;8.45;;;;;;;16.71;66.62;99644.25;5113185;27;20130;-69
2021/07/07 00:52:26;;;;;;;15.32;7.65;;;;;;;16.71;65.41;99636.22;5094804;28;20048;-68
2021/07/07 00:54:52;;;;;;;12.20;8.65;;;;;;;16.73;66.48;99636.72;5113138;28;20048;-70
2021/07/07 00:57:19;;;;;;;11.98;7.65;;;;;;;16.71;65.84;99637.03;5112923;28;20420;-70
2021/07/07 00:59:45;;;;;;;14.20;8.30;;;;;;;16.74;65.62;99641.81;5094687;28;20450;-69
2021/07/07 01:02:13;;;;;;;16.98;7.30;;;;;;;16.80;62.81;99632.75;5112979;28;20093;-70
2021/07/07 01:04:39;;;;;;;13.50;7.60;;;;;;;16.90;64.69;99633.78;5111527;28;20042;-69
2021/07/07 01:07:05;;;;;;;17.83;8.88;;;;;;;16.96;64.65;99633.47;5111634;28;20048;-70
2021/07/07 01:09:31;;;;;;;12.93;7.65;;;;;;;17.12;64.08;99639.59;5112938;28;20051;-69
2021/07/07 01:11:56;;;;;;;14.23;7.85;;;;;;;17.28;63.45;99639.53;5112724;28;20047;-70
2021/07/07 01:14:22;;;;;;;16.13;8.85;;;;;;;17.44;62.56;99641.84;5112824;28;20039;-69
2021/07/07 01:16:49;;;;;;;12.10;7.57;;;;;;;17.64;61.29;99645.47;5111411;28;20090;-69
2021/07/07 01:19:16;;;;;;;14.63;8.07;;;;;;;17.84;61.19;99644.59;5094504;28;20059;-69
2021/07/07 01:21:50;;;;;;;15.55;8.35;;;;;;;18.06;60.79;99646.81;5112489;28;20043;-69
2021/07/07 01:24:17;;;;;;;13.25;8.40;;;;;;;18.27;59.42;99642.13;5112548;28;20043;-69
2021/07/07 01:26:44;;;;;;;16.08;8.48;;;;;;;18.52;60.36;99644.53;5111468;28;20408;-69
2021/07/07 01:29:11;;;;;;;16.67;8.57;;;;;;;18.73;58.71;99660.44;5112297;28;20043;-69
2021/07/07 01:31:37;;;;;;;16.83;8.63;;;;;;;18.90;58.97;99660.84;5112463;28;20051;-69
2021/07/07 01:34:07;;;;;;;14.68;8.82;;;;;;;19.17;58.98;99656.75;5111851;28;20043;-69
2021/07/07 01:36:35;;;;;;;14.25;8.45;;;;;;;19.43;58.67;99663.41;5112394;28;20112;-69
2021/07/07 01:39:02;;;;;;;13.05;8.52;;;;;;;19.80;58.23;99661.88;5112631;28;20043;-69
2021/07/07 01:41:28;;;;;;;15.07;8.27;;;;;;;20.09;56.04;99667.06;5111336;28;20133;-69
2021/07/07 01:43:54;;;;;;;18.38;8.80;;;;;;;20.36;55.92;99671.75;5112401;28;20047;-69
2021/07/07 01:46:20;;;;;;;14.63;8.95;;;;;;;20.58;55.65;99668.41;5129181;27;20059;-70
2021/07/07 01:48:46;;;;;;;13.75;8.50;;;;;;;20.77;55.53;99672.94;5114482;27;20415;-69
2021/07/07 01:51:12;;;;;;;16.65;8.10;;;;;;;21.05;54.33;99668.34;5132739;27;20047;-69
2021/07/07 01:53:37;;;;;;;12.00;8.30;;;;;;;21.33;53.76;99671.84;5132641;27;20139;-70
2021/07/07 01:56:04;;;;;;;12.68;8.65;;;;;;;21.58;52.74;99672.41;5133201;27;20043;-69
2021/07/07 01:58:29;;;;;;;16.30;8.60;;;;;;;21.67;50.74;99673.28;5114281;27;20077;-70
2021/07/07 02:00:55;;;;;;;16.05;8.32;;;;;;;21.89;51.77;99675.25;5133085;27;20039;-69
2021/07/07 02:03:21;;;;;;;13.25;8.50;;;;;;;22.09;50.29;99669.34;5132842;27;20416;-69
2021/07/07 02:05:47;;;;;;;16.65;8.25;;;;;;;22.34;49.69;99681.44;5114488;27;20122;-69
2021/07/07 02:08:13;;;;;;;12.27;8.93;;;;;;;22.56;49.67;99677.13;5132636;27;20039;-69
2021/07/07 02:10:39;;;;;;;15.95;8.93;;;;;;;22.77;49.05;99680.09;5114227;27;20081;-68
2021/07/07 02:13:09;;;;;;;14.18;8.02;;;;;;;22.84;49.38;99685.84;5114349;27;20043;-69
2021/07/07 02:15:36;;;;;;;12.93;8.45;;;;;;;23.10;49.22;99692.19;5132934;27;20039;-69
2021/07/07 02:18:03;;;;;;;12.98;7.78;;;;;;;23.50;48.43;99686.72;5132556;27;20085;-69
2021/07/07 02:20:31;;;;;;;14.77;8.77;;;;;;;23.75;47.87;99692.50;5132371;27;20087;-70
2021/07/07 02:22:58;;;;;;;15.40;8.82;;;;;;;24.02;47.71;99697.59;5132687;27;20047;-69
2021/07/07 02:25:27;;;;;;;13.60;8.07;;;;;;;24.33;46.87;99695.81;5114410;28;20511;-70
2021/07/07 02:27:54;;;;;;;14.88;8.32;;;;;;;24.64;46.13;99692.88;5132605;27;20043;-70
2021/07/07 02:30:23;;;;;;;14.00;8.70;;;;;;;24.96;45.63;99696.91;5132623;27;20038;-70
2021/07/07 02:32:50;;;;;;;11.90;8.10;;;;;;;25.15;44.80;99696.56;5132342;28;20059;-69
2021/07/07 02:35:19;;;;;;;14.40;7.60;;;;;;;25.41;44.39;99696.38;5132747;28;20134;-68
2021/07/07 02:37:49;;;;;;;12.50;8.35;;;;;;;25.65;43.68;99695.75;5113971;28;20543;-68
2021/07/07 02:40:15;;;;;;;14.25;8.50;;;;;;;25.80;42.82;99697.88;5097484;28;20039;-68
2021/07/07 02:42:41;;;;;;;13.30;8.82;;;;;;;25.75;42.54;99702.72;5132574;28;20100;-70
2021/07/07 02:45:08;;;;;;;14.82;8.60;;;;;;;25.90;41.73;99709.50;5096714;28;20055;-69
2021/07/07 02:47:33;;;;;;;12.32;7.90;;;;;;;26.06;42.22;99710.50;5113861;28;20097;-69
2021/07/07 02:49:59;;;;;;;15.02;8.43;;;;;;;26.25;41.75;99710.78;5132210;28;20063;-70
2021/07/07 02:52:25;;;;;;;13.77;8.40;;;;;;;26.35;41.34;99708.75;5132189;28;20216;-69
2021/07/07 02:54:51;;;;;;;14.20;8.93;;;;;;;26.60;41.11;99709.66;5132383;28;20031;-69
2021/07/07 02:57:17;;;;;;;13.25;7.85;;;;;;;26.71;40.69;99725.22;5114093;28;20137;-69
2021/07/07 02:59:43;;;;;;;14.73;8.43;;;;;;;26.98;40.12;99722.19;5113633;28;20039;-69
2021/07/07 03:02:10;;;;;;;12.35;7.88;;;;;;;27.13;39.96;99725.03;5132336;28;20095;-69
2021/07/07 03:04:36;;;;;;;13.90;8.27;;;;;;;27.29;39.72;99727.09;5113580;27;20067;-69
2021/07/07 03:07:05;;;;;;;16.05;8.75;;;;;;;27.27;39.48;99719.28;5134315;27;20047;-70
2021/07/07 03:09:31;;;;;;;14.82;8.30;;;;;;;27.38;38.91;99727.75;5136009;27;20046;-69
2021/07/07 03:11:56;;;;;;;14.23;8.10;;;;;;;27.41;39.25;99724.34;5136031;27;20046;-70
2021/07/07 03:14:22;;;;;;;13.65;8.60;;;;;;;27.54;38.91;99734.09;5135983;27;20508;-70
2021/07/07 03:16:48;;;;;;;11.93;8.00;;;;;;;27.37;39.28;99734.34;5135936;27;20054;-69
2021/07/07 03:19:14;;;;;;;14.45;8.23;;;;;;;27.30;38.94;99739.56;5117232;27;20496;-69
2021/07/07 03:21:40;;;;;;;14.55;8.40;;;;;;;27.44;39.52;99734.56;5135827;27;20116;-69
2021/07/07 03:24:07;;;;;;;11.38;8.40;;;;;;;27.32;39.32;99738.06;5135922;27;20510;-69
2021/07/07 03:26:33;;;;;;;14.60;8.57;;;;;;;27.46;38.79;99735.00;5117179;27;20125;-69
2021/07/07 03:28:59;;;;;;;14.77;9.32;;;;;;;27.33;39.00;99741.63;5134577;27;20136;-69
2021/07/07 03:31:24;;;;;;;13.90;8.70;;;;;;;27.15;38.71;99733.69;5135292;27;20039;-70
2021/07/07 03:33:50;;;;;;;13.82;9.15;;;;;;;27.08;39.15;99740.78;5135462;27;20072;-70
2021/07/07 03:36:18;;;;;;;12.63;8.50;;;;;;;27.09;39.04;99735.00;5135871;27;20537;-69
2021/07/07 03:38:56;;;;;;;14.23;8.80;;;;;;;27.07;38.78;99741.91;5135020;27;20055;-69
2021/07/07 03:41:21;;;;;;;14.68;8.65;;;;;;;27.00;38.80;99742.47;5135340;27;20054;-70
2021/07/07 03:43:48;;;;;;;13.63;9.32;;;;;;;27.17;38.57;99752.38;5099641;27;20043;-70
2021/07/07 03:46:14;;;;;;;18.17;8.82;;;;;;;27.25;38.39;99750.69;5099884;27;20047;-69
2021/07/07 03:48:40;;;;;;;17.45;9.50;;;;;;;27.15;37.96;99757.38;5116288;27;20084;-69
2021/07/07 03:51:05;;;;;;;15.65;9.35;;;;;;;27.01;37.34;99754.16;5135237;27;20058;-68
2021/07/07 03:53:31;;;;;;;17.70;8.90;;;;;;;26.88;37.68;99756.03;5135183;27;20042;-69
2021/07/07 03:55:57;;;;;;;14.23;9.80;;;;;;;26.89;38.08;99761.16;5135377;27;20058;-69
2021/07/07 03:58:22;;;;;;;18.70;12.40;;;;;;;26.82;38.23;99758.19;5135264;27;20192;-69
2021/07/07 04:00:48;;;;;;;16.95;13.88;;;;;;;26.71;38.18;99763.28;5135273;27;20035;-70
2021/07/07 04:03:14;;;;;;;24.63;12.75;;;;;;;26.73;37.94;99752.84;5135226;27;20039;-69
2021/07/07 04:05:41;;;;;;;17.20;11.25;;;;;;;26.54;38.52;99763.47;5134996;27;20510;-68
2021/07/07 04:08:06;;;;;;;19.55;12.07;;;;;;;26.48;38.21;99765.56;5135018;27;20043;-69
2021/07/07 04:10:32;;;;;;;22.50;10.77;;;;;;;26.40;38.43;99762.91;5134661;27;20050;-70
2021/07/07 04:12:58;;;;;;;16.05;9.98;;;;;;;26.45;38.61;99765.44;5134892;27;20047;-70
2021/07/07 04:15:24;;;;;;;18.15;10.43;;;;;;;26.60;38.74;99767.53;5135140;27;20043;-70
2021/07/07 04:17:50;;;;;;;15.27;9.27;;;;;;;26.42;39.01;99764.19;5134626;27;20047;-70
2021/07/07 04:20:18;;;;;;;18.75;10.45;;;;;;;26.47;39.26;99763.97;5116370;27;20043;-70
2021/07/07 04:22:44;;;;;;;18.25;9.98;;;;;;;26.39;39.75;99759.41;5116105;27;20491;-69
2021/07/07 04:25:11;;;;;;;19.02;9.48;;;;;;;26.38;39.02;99755.09;5134684;27;20058;-69
2021/07/07 04:27:38;;;;;;;21.85;10.50;;;;;;;26.53;39.42;99763.78;5134411;27;20043;-70
2021/07/07 04:30:09;;;;;;;15.48;9.95;;;;;;;26.57;39.17;99772.88;5134492;27;20043;-68
2021/07/07 04:32:35;;;;;;;18.65;10.52;;;;;;;26.54;38.73;99771.63;5116127;27;20046;-69
2021/07/07 04:35:01;;;;;;;23.25;10.32;;;;;;;26.78;38.61;99767.38;5133224;27;20027;-69
2021/07/07 04:37:27;;;;;;;19.08;10.63;;;;;;;26.82;38.86;99769.06;5134195;27;20043;-69
2021/07/07 04:39:55;;;;;;;20.27;11.02;;;;;;;26.87;38.82;99776.22;5133134;27;20042;-69
2021/07/07 04:42:21;;;;;;;23.85;10.50;;;;;;;27.21;38.50;99774.25;5116473;27;20090;-69
2021/07/07 04:44:46;;;;;;;22.83;10.15;;;;;;;27.60;36.94;99779.03;5115260;27;20047;-69
2021/07/07 04:47:12;;;;;;;19.42;9.55;;;;;;;27.62;37.03;99781.41;5115751;27;20046;-69
2021/07/07 04:49:38;;;;;;;20.58;9.02;;;;;;;27.62;37.59;99778.69;5133918;27;20039;-70
2021/07/07 04:52:05;;;;;;;17.90;9.93;;;;;;;27.71;37.24;99768.47;5115507;27;20055;-70
2021/07/07 04:54:32;;;;;;;18.75;9.15;;;;;;;27.76;37.52;99781.81;5115632;27;20031;-70
2021/07/07 04:56:58;;;;;;;21.73;9.23;;;;;;;27.58;37.96;99777.78;5134056;27;20054;-68
2021/07/07 04:59:24;;;;;;;14.95;8.48;;;;;;;27.78;37.57;99787.75;5133961;27;20137;-69
2021/07/07 05:01:51;;;;;;;19.45;10.00;;;;;;;27.75;36.77;99788.41;5115820;27;20053;-68
2021/07/07 05:04:17;;;;;;;15.40;8.57;;;;;;;27.89;37.19;99781.84;5133788;27;20043;-69
2021/07/07 05:06:43;;;;;;;17.00;9.32;;;;;;;27.99;36.61;99792.25;5133562;27;20420;-68
2021/07/07 05:09:08;;;;;;;16.35;9.07;;;;;;;28.13;35.74;99786.44;5114891;27;20083;-69
2021/07/07 05:11:35;;;;;;;20.35;9.43;;;;;;;28.32;36.50;99792.03;5133470;27;20527;-67
2021/07/07 05:14:01;;;;;;;16.27;9.23;;;;;;;28.27;36.11;99793.09;5114799;27;20054;-68
2021/07/07 05:16:27;;;;;;;22.58;9.10;;;;;;;28.01;36.22;99792.72;5133311;27;20625;-66
2021/07/07 05:18:54;;;;;;;17.88;9.88;;;;;;;27.76;36.49;99787.28;5098230;27;20043;-68
2021/07/07 05:21:20;;;;;;;19.98;9.02;;;;;;;27.59;36.38;99801.13;5133583;27;20034;-69
2021/07/07 05:23:46;;;;;;;16.58;8.85;;;;;;;27.35;36.87;99789.09;5114833;27;20051;-69
2021/07/07 05:26:11;;;;;;;16.15;8.70;;;;;;;27.34;36.72;99792.19;5133644;27;20095;-68
2021/07/07 05:28:37;;;;;;;20.92;9.18;;;;;;;27.18;37.54;99792.06;5114301;27;20042;-69
2021/07/07 05:31:06;;;;;;;21.88;8.95;;;;;;;26.89;38.04;99798.44;5132754;27;20076;-68
2021/07/07 05:33:34;;;;;;;21.48;9.90;;;;;;;26.80;38.35;99803.19;5133043;27;20504;-68
2021/07/07 05:36:06;;;;;;;16.35;8.80;;;;;;;26.65;38.66;99796.44;5133415;27;20043;-68
2021/07/07 05:38:32;;;;;;;18.58;8.80;;;;;;;26.63;38.94;99801.44;5133257;27;20047;-67
2021/07/07 05:40:59;;;;;;;15.43;7.47;;;;;;;26.52;38.56;99801.03;5114624;27;20504;-69
2021/07/07 05:43:25;;;;;;;15.05;8.05;;;;;;;26.40;38.96;99806.41;5133181;27;20091;-69
2021/07/07 05:45:51;;;;;;;14.07;7.90;;;;;;;26.16;38.45;99810.59;5128139;27;20065;-69
2021/07/07 05:48:17;;;;;;;19.02;7.78;;;;;;;25.99;39.14;99813.44;5092408;27;20085;-71
2021/07/07 05:50:43;;;;;;;19.95;8.05;;;;;;;25.92;40.21;99818.59;5111875;27;20528;-68
2021/07/07 05:53:09;;;;;;;18.15;9.18;;;;;;;25.93;39.54;99812.03;5131468;27;20069;-69
2021/07/07 05:55:36;;;;;;;21.60;8.45;;;;;;;25.96;40.12;99806.72;5131150;27;20054;-69
2021/07/07 05:58:02;;;;;;;18.85;8.05;;;;;;;25.94;39.82;99805.47;5131751;27;20047;-70
2021/07/07 06:00:28;;;;;;;17.30;8.40;;;;;;;25.99;38.96;99816.16;5130883;27;20187;-69
2021/07/07 06:02:55;;;;;;;16.63;8.27;;;;;;;26.03;38.83;99812.44;5111977;27;20137;-69
2021/07/07 06:05:21;;;;;;;20.40;8.13;;;;;;;25.97;38.61;99815.66;5092745;27;20053;-69
2021/07/07 06:07:48;;;;;;;18.85;8.00;;;;;;;25.93;38.08;99818.25;5127517;27;20043;-69
2021/07/07 06:10:18;;;;;;;20.92;7.80;;;;;;;25.79;38.67;99810.31;5131656;27;20066;-69
2021/07/07 06:12:44;;;;;;;20.48;7.07;;;;;;;25.73;38.50;99806.19;5130717;27;20071;-68
2021/07/07 06:15:11;;;;;;;18.13;7.22;;;;;;;25.70;37.84;99809.56;5131456;27;20039;-71
2021/07/07 06:17:38;;;;;;;14.63;7.18;;;;;;;25.68;37.66;99809.13;5113751;27;20393;-70
2021/07/07 06:20:08;;;;;;;18.50;6.63;;;;;;;25.69;37.34;99818.06;5132109;27;20039;-70
2021/07/07 06:22:34;;;;;;;14.70;6.32;;;;;;;25.74;37.30;99810.53;5113431;27;20047;-69
2021/07/07 06:25:00;;;;;;;11.25;5.82;;;;;;;25.75;36.66;99817.53;5132258;27;20031;-74
2021/07/07 06:27:26;;;;;;;11.85;4.82;;;;;;;25.79;35.66;99814.94;5131936;27;20047;-70
2021/07/07 06:29:51;;;;;;;13.20;5.05;;;;;;;25.80;35.84;99817.34;5113499;28;20179;-74
2021/07/07 06:32:18;;;;;;;7.97;4.13;;;;;;;25.79;34.77;99818.47;5113343;28;20104;-74
2021/07/07 06:34:45;;;;;;;11.45;4.50;;;;;;;25.76;34.67;99821.03;5119172;27;20575;-72
2021/07/07 06:37:11;;;;;;;6.45;3.88;;;;;;;25.75;34.58;99820.25;5148359;27;20054;-70
2021/07/07 06:39:37;;;;;;;6.63;3.35;;;;;;;25.75;33.64;99817.53;5115633;27;20042;-69
2021/07/07 06:42:04;;;;;;;5.70;3.08;;;;;;;25.74;33.37;99826.03;5155389;27;20042;-69
2021/07/07 06:44:30;;;;;;;9.00;3.78;;;;;;;25.76;33.70;99815.63;5155188;27;20035;-69
2021/07/07 06:46:56;;;;;;;7.90;4.30;;;;;;;25.74;34.66;99818.66;5137994;27;20043;-69
2021/07/07 06:49:22;;;;;;;11.57;5.25;;;;;;;25.79;35.39;99820.38;5154849;27;20052;-70
2021/07/07 06:51:49;;;;;;;11.40;4.18;;;;;;;25.87;34.97;99818.78;5155597;27;20034;-69
2021/07/07 06:54:16;;;;;;;5.97;3.58;;;;;;;25.94;34.39;99817.16;5156168;27;20042;-70
2021/07/07 06:56:42;;;;;;;6.13;3.42;;;;;;;25.93;32.82;99817.47;5119948;27;20038;-71
2021/07/07 06:59:08;;;;;;;5.70;3.30;;;;;;;25.92;32.79;99821.31;5153810;27;20049;-70
2021/07/07 08:04:18;;;;;;;6.55;3.05;;;;;;;26.12;30.91;99828.69;5127469;27;20749;-68
2021/07/07 08:06:45;;;;;;;4.00;2.70;;;;;;;26.12;30.47;99814.28;5127026;28;20043;-67
2021/07/07 08:09:11;;;;;;;9.10;2.95;;;;;;;26.30;30.38;99823.91;5126464;27;20042;-67
2021/07/07 08:11:37;;;;;;;7.60;3.15;;;;;;;26.38;30.72;99831.19;5127150;27;20416;-66
2021/07/07 08:14:03;;;;;;;5.20;2.80;;;;;;;26.49;30.64;99839.75;5127073;27;20132;-67
2021/07/07 08:16:29;;;;;;;5.43;2.78;;;;;;;26.39;31.41;99835.50;5127165;27;20069;-68
2021/07/07 08:18:55;;;;;;;6.07;2.90;;;;;;;26.44;31.45;99834.50;5127629;27;20528;-67
2021/07/07 08:21:21;;;;;;;4.72;2.70;;;;;;;26.37;31.81;99837.75;5109608;28;20092;-69
2021/07/07 08:23:47;;;;;;;9.48;3.25;;;;;;;26.33;30.87;99841.50;5127933;27;20074;-67
2021/07/07 08:26:20;;;;;;;11.32;3.53;;;;;;;26.39;32.17;99842.88;5126671;28;20043;-67
2021/07/07 08:28:46;;;;;;;4.50;3.10;;;;;;;26.44;30.59;99845.38;5126362;28;20085;-67
2021/07/07 08:31:12;;;;;;;5.13;2.80;;;;;;;26.41;30.54;99846.03;5125664;27;20039;-67
2021/07/07 08:33:38;;;;;;;7.20;2.78;;;;;;;26.31;30.13;99844.53;5125917;27;20055;-67
2021/07/07 08:36:04;;;;;;;4.60;2.58;;;;;;;26.21;29.63;99847.66;5107533;28;20134;-66
2021/07/07 08:38:30;;;;;;;4.40;2.80;;;;;;;26.15;28.69;99848.94;5124054;28;20484;-65
2021/07/07 08:40:56;;;;;;;5.32;2.63;;;;;;;26.16;29.38;99837.75;5127267;27;20065;-67
2021/07/07 08:43:24;;;;;;;5.85;3.33;;;;;;;26.18;29.68;99840.16;5127110;27;20050;-65
2021/07/07 08:45:54;;;;;;;6.40;3.08;;;;;;;26.22;29.56;99831.00;5128000;27;20035;-67
2021/07/07 08:48:20;;;;;;;9.45;2.60;;;;;;;26.29;29.60;99835.91;5109431;28;20096;-67
2021/07/07 08:50:46;;;;;;;8.68;3.15;;;;;;;26.32;29.74;99837.94;5109021;28;20077;-70
2021/07/07 08:53:15;;;;;;;5.13;2.92;;;;;;;26.40;30.44;99836.31;5125044;28;20146;-68
2021/07/07 08:55:42;;;;;;;8.75;3.45;;;;;;;26.42;29.56;99836.78;5127759;27;20443;-68
2021/07/07 08:58:08;;;;;;;6.35;3.25;;;;;;;26.53;29.10;99831.72;5090814;28;20518;-68
2021/07/07 09:00:41;;;;;;;5.40;2.85;;;;;;;26.53;28.59;99840.69;5123264;27;20054;-66
2021/07/07 09:03:15;;;;;;;;;;;;;;;26.60;30.03;99840.94;5067640;28;20505;-68
2021/07/07 09:06:02;;;;;;;4.28;2.65;;;;;;;26.50;29.10;99849.50;5092030;28;19920;-68
2021/07/07 09:08:36;;;;;;;7.05;3.55;;;;;;;26.44;29.18;99842.66;5091711;28;20043;-67
2021/07/07 09:11:22;;;;;;;6.43;3.00;;;;;;;26.42;29.32;99834.84;5106329;28;20559;-67
2021/07/07 09:13:51;;;;;;;7.05;3.17;;;;;;;26.46;29.69;99840.41;5113053;28;20051;-68
2021/07/07 09:16:19;;;;;;;7.65;3.00;;;;;;;26.46;29.70;99846.63;5111829;28;20488;-67
2021/07/07 09:18:45;;;;;;;6.05;3.47;;;;;;;26.48;29.39;99841.66;5094633;28;20100;-67
2021/07/07 09:21:29;;;;;;;6.90;2.95;;;;;;;26.47;28.04;99850.13;5104924;28;20153;-64
2021/07/07 09:23:57;;;;;;;6.15;2.90;;;;;;;26.49;29.15;99843.28;5090434;28;20443;-66
2021/07/07 09:26:31;;;;;;;5.85;2.88;;;;;;;26.52;29.76;99841.81;5056451;28;20043;-65
2021/07/07 09:28:57;;;;;;;4.97;3.25;;;;;;;26.55;30.67;99845.81;5091271;28;20520;-65
2021/07/07 09:31:34;;;;;;;9.32;3.25;;;;;;;26.64;30.25;99836.44;5073649;28;20602;-66
2021/07/07 09:34:29;;;;;;;3.72;3.08;;;;;;;26.69;29.24;99838.16;5074052;28;20055;-66
2021/07/07 09:36:57;;;;;;;5.18;2.70;;;;;;;26.74;29.28;99832.53;5074359;28;20075;-65
2021/07/07 09:39:23;;;;;;;5.85;3.30;;;;;;;26.79;29.75;99839.66;5091701;28;20398;-66
2021/07/07 09:41:51;;;;;;;5.07;3.28;;;;;;;26.77;30.19;99836.47;5093206;28;20410;-66
2021/07/07 09:44:18;;;;;;;9.15;3.53;;;;;;;26.76;29.63;99829.44;5092343;28;20089;-67
2021/07/07 09:46:44;;;;;;;5.45;2.78;;;;;;;26.79;30.21;99837.72;5091555;28;20405;-67
2021/07/07 09:49:10;;;;;;;6.50;2.97;;;;;;;26.72;29.88;99834.78;5090270;28;20087;-66
2021/07/07 09:51:37;;;;;;;8.70;3.40;;;;;;;26.73;30.76;99831.69;5091224;28;20044;-66
2021/07/07 09:54:06;;;;;;;3.85;2.90;;;;;;;26.80;30.71;99828.47;5089413;28;20074;-67
2021/07/07 09:56:33;;;;;;;6.55;3.22;;;;;;;26.82;30.48;99831.63;5073163;28;20047;-66
2021/07/07 09:59:02;;;;;;;7.38;3.38;;;;;;;26.85;30.89;99822.00;5090366;28;20052;-65
2021/07/07 10:01:28;;;;;;;4.83;3.03;;;;;;;26.86;29.97;99827.13;5071974;28;20048;-65
2021/07/07 10:03:56;;;;;;;5.78;3.25;;;;;;;26.86;29.27;99820.88;5089720;28;20051;-67
2021/07/07 10:06:22;;;;;;;6.65;3.40;;;;;;;26.85;29.29;99822.78;5089994;28;20046;-66
2021/07/07 10:08:50;;;;;;;4.72;3.20;;;;;;;26.82;28.68;99825.38;5071019;28;20123;-66
2021/07/07 10:11:17;;;;;;;5.38;3.25;;;;;;;26.79;28.86;99815.97;5088556;28;20055;-67
2021/07/07 10:13:44;;;;;;;4.60;2.80;;;;;;;26.81;29.26;99819.16;5071066;28;20048;-67
2021/07/07 10:16:10;;;;;;;3.80;2.90;;;;;;;26.85;29.75;99816.56;5088028;28;20102;-66
2021/07/07 10:18:36;;;;;;;6.20;3.25;;;;;;;26.93;30.84;99819.19;5089346;28;20495;-65
2021/07/07 10:21:02;;;;;;;7.38;3.10;;;;;;;27.01;30.33;99822.16;5071237;28;20136;-67
2021/07/07 10:23:32;;;;;;;8.05;3.47;;;;;;;27.04;30.07;99824.22;5089197;28;20135;-67
2021/07/07 10:26:02;;;;;;;7.60;3.35;;;;;;;27.04;29.97;99825.00;5089069;28;20028;-66
2021/07/07 10:28:27;;;;;;;6.03;3.15;;;;;;;27.02;29.54;99823.75;5070855;28;20044;-66
2021/07/07 10:30:59;;;;;;;5.30;3.38;;;;;;;26.99;28.58;99818.97;5069096;28;20039;-67
2021/07/07 10:33:36;;;;;;;4.07;2.83;;;;;;;26.86;28.95;99813.50;5070840;28;20044;-68
2021/07/07 10:36:21;;;;;;;4.80;3.00;;;;;;;26.79;29.97;99821.41;5071527;28;20143;-67
2021/07/07 10:38:59;;;;;;;6.07;3.53;;;;;;;26.71;29.41;99812.22;5087286;28;20329;-67
2021/07/07 10:41:42;;;;;;;6.32;3.05;;;;;;;26.72;29.85;99813.00;5098746;28;20041;-66
2021/07/07 10:44:09;;;;;;;5.85;3.33;;;;;;;26.71;29.46;99814.94;5109618;28;20043;-67
2021/07/07 10:47:00;;;;;;;7.47;3.35;;;;;;;26.72;30.06;99819.25;5109660;28;20576;-67
2021/07/07 10:49:28;;;;;;;6.68;3.08;;;;;;;26.79;30.82;99815.19;5108497;28;20047;-67
2021/07/07 10:51:58;;;;;;;5.40;3.47;;;;;;;26.85;30.19;99811.13;5058181;28;20150;-67
2021/07/07 10:54:32;;;;;;;7.17;4.17;;;;;;;26.89;29.54;99814.78;5107421;28;20040;-68
2021/07/07 10:56:59;;;;;;;4.93;3.25;;;;;;;26.92;29.71;99812.16;5107240;28;20180;-67
2021/07/07 10:59:34;;;;;;;6.43;3.30;;;;;;;26.92;29.85;99814.88;5106812;28;20040;-67
2021/07/07 11:02:20;;;;;;;7.03;3.35;;;;;;;26.89;29.89;99821.00;5106385;28;20043;-67
2021/07/07 11:04:49;;;;;;;5.32;3.22;;;;;;;26.96;30.07;99818.50;5108155;28;20058;-67
2021/07/07 11:07:33;;;;;;;4.93;3.20;;;;;;;27.02;31.09;99810.94;5105749;28;20039;-69
2021/07/07 11:10:13;;;;;;;7.32;3.63;;;;;;;27.07;31.04;99815.38;5109387;28;20043;-68
2021/07/07 11:12:41;;;;;;;;;;;;;;;27.07;30.05;99808.00;5110897;28;20617;-67
2021/07/07 11:15:22;;;;;;;5.03;2.70;;;;;;;27.10;30.19;99811.97;5110298;28;20380;-67
2021/07/07 11:17:54;;;;;;;4.97;3.28;;;;;;;27.13;29.82;99803.13;5110026;28;20043;-67
2021/07/07 11:20:33;;;;;;;9.57;3.05;;;;;;;27.17;30.64;99807.59;5093479;28;20050;-68
2021/07/07 11:22:59;;;;;;;8.23;3.78;;;;;;;27.22;29.51;99803.06;5108247;28;20059;-68
2021/07/07 11:25:27;;;;;;;4.30;3.42;;;;;;;27.22;29.99;99803.84;5108089;28;20051;-68
2021/07/07 11:27:54;;;;;;;8.63;5.50;;;;;;;27.17;29.56;99802.13;5111054;28;20055;-68
2021/07/07 11:30:20;;;;;;;6.80;3.00;;;;;;;27.10;30.39;99804.59;5109167;28;20050;-66
2021/07/07 11:32:49;;;;;;;9.73;3.45;;;;;;;27.09;29.92;99805.75;5110859;28;20424;-67
2021/07/07 11:35:36;;;;;;;4.03;2.90;;;;;;;27.12;29.71;99807.78;5092513;28;20040;-66
2021/07/07 11:38:03;;;;;;;4.68;2.95;;;;;;;27.15;30.48;99801.69;5110360;28;20104;-66
2021/07/07 11:40:31;;;;;;;5.38;3.08;;;;;;;27.13;29.36;99801.22;5110132;27;20035;-67
2021/07/07 11:43:01;;;;;;;9.98;3.80;;;;;;;27.17;29.61;99798.63;5109409;28;20411;-67
2021/07/07 11:45:32;;;;;;;;;;;;;;;27.20;29.72;99802.59;5110918;28;20035;-70
2021/07/07 11:48:10;;;;;;;3.88;2.72;;;;;;;27.22;30.73;99797.63;5111317;28;19924;-69
2021/07/07 11:50:40;;;;;;;4.72;3.42;;;;;;;27.27;29.67;99800.13;5109376;28;20175;-69
2021/07/07 11:53:07;;;;;;;6.93;3.63;;;;;;;27.26;29.49;99788.44;5108823;28;20062;-66
2021/07/07 11:55:58;;;;;;;4.15;3.10;;;;;;;27.26;28.26;99798.53;5110293;28;20457;-67
2021/07/07 11:58:32;;;;;;;4.28;3.35;;;;;;;27.23;28.35;99800.00;5107389;28;20109;-68
2021/07/07 12:01:09;;;;;;;8.10;3.58;;;;;;;27.21;28.08;99796.84;5106158;28;20039;-67
2021/07/07 12:03:36;;;;;;;5.32;3.28;;;;;;;27.21;27.69;99802.28;5090479;28;20074;-66
2021/07/07 12:06:09;;;;;;;5.13;3.13;;;;;;;27.24;27.14;99806.22;5091207;28;20188;-67
2021/07/07 12:08:39;;;;;;;5.07;3.60;;;;;;;27.25;26.90;99805.09;5106878;28;20185;-67
2021/07/07 12:11:11;;;;;;;6.80;3.47;;;;;;;27.20;27.30;99802.59;5106833;28;20032;-67
2021/07/07 12:13:38;;;;;;;6.07;3.88;;;;;;;27.18;27.22;99798.31;5105890;28;20044;-67
2021/07/07 12:16:28;;;;;;;4.60;3.00;;;;;;;27.16;26.80;99806.00;5106236;28;20051;-68
2021/07/07 12:18:58;;;;;;;;;;;;;;;27.17;27.26;99793.97;5090034;28;20573;-65
2021/07/07 12:21:24;;;;;;;;;;;;;;;27.19;27.24;99801.81;5108994;28;19919;-67
2021/07/07 12:23:56;;;;;;;5.00;3.40;;;;;;;27.02;27.75;99782.94;5107283;28;19965;-68
2021/07/07 12:26:26;;;;;;;6.50;3.20;;;;;;;27.14;28.28;99808.22;5108350;28;20216;-67
2021/07/07 12:28:54;;;;;;;5.28;3.50;;;;;;;27.17;28.10;99798.63;5105031;28;20131;-67
2021/07/07 12:31:21;;;;;;;9.85;3.33;;;;;;;27.21;27.93;99799.56;5088113;28;20036;-67
2021/07/07 12:33:47;;;;;;;8.27;3.53;;;;;;;27.23;28.22;99804.66;5109109;28;20043;-67
2021/07/07 12:36:13;;;;;;;5.80;3.67;;;;;;;27.24;28.42;99798.06;5106789;28;20040;-68